sensor_id;sensor_type;location;lat;lon;timestamp;temperature;humidity
19242;DHT22;9755;47.790;9.620;2022-12-26T00:01:44;4.60;99.90
19242;DHT22;9755;47.790;9.620;2022-12-26T00:04:11;4.60;99.90
19242;DHT22;9755;47.790;9.620;2022-12-26T00:06:38;4.60;99.90
19242;DHT22;9755;47.790;9.620;2022-12-26T00:09:06;4.50;99.90
19242;DHT22;9755;47.790;9.620;2022-12-26T00:11:34;4.40;99.90
19242;DHT22;9755;47.790;9.620;2022-12-26T00:14:05;4.50;99.90
19242;DHT22;9755;47.790;9.620;2022-12-26T00:16:33;4.50;99.90
19242;DHT22;9755;47.790;9.620;2022-12-26T00:19:02;4.40;99.90
19242;DHT22;9755;47.790;9.620;2022-12-26T00:21:30;4.40;99.90
19242;DHT22;9755;47.790;9.620;2022-12-26T00:23:58;4.40;99.90
19242;DHT22;9755;47.790;9.620;2022-12-26T00:26:27;4.40;99.90
19242;DHT22;9755;47.790;9.620;2022-12-26T00:28:55;4.40;99.90
19242;DHT22;9755;47.790;9.620;2022-12-26T00:31:23;4.30;99.90
19242;DHT22;9755;47.790;9.620;2022-12-26T00:33:51;4.40;99.90
19242;DHT22;9755;47.790;9.620;2022-12-26T00:36:21;4.40;99.90
19242;DHT22;9755;47.790;9.620;2022-12-26T00:38:50;4.30;99.90
19242;DHT22;9755;47.790;9.620;2022-12-26T00:41:18;4.30;99.90
19242;DHT22;9755;47.790;9.620;2022-12-26T00:43:46;4.30;99.90
19242;DHT22;9755;47.790;9.620;2022-12-26T00:46:14;4.30;99.90
19242;DHT22;9755;47.790;9.620;2022-12-26T00:48:41;4.40;99.90
19242;DHT22;9755;47.790;9.620;2022-12-26T00:51:09;4.30;99.90
19242;DHT22;9755;47.790;9.620;2022-12-26T00:53:37;4.30;99.90
19242;DHT22;9755;47.790;9.620;2022-12-26T00:56:05;4.30;99.90
19242;DHT22;9755;47.790;9.620;2022-12-26T00:58:33;4.20;99.90
19242;DHT22;9755;47.790;9.620;2022-12-26T01:01:09;4.20;99.90
19242;DHT22;9755;47.790;9.620;2022-12-26T01:03:38;4.20;99.90
19242;DHT22;9755;47.790;9.620;2022-12-26T01:06:05;4.20;99.90
19242;DHT22;9755;47.790;9.620;2022-12-26T01:08:33;4.20;99.90
19242;DHT22;9755;47.790;9.620;2022-12-26T01:11:04;4.30;99.90
19242;DHT22;9755;47.790;9.620;2022-12-26T01:13:32;4.30;99.90
19242;DHT22;9755;47.790;9.620;2022-12-26T01:15:59;4.30;99.90
19242;DHT22;9755;47.790;9.620;2022-12-26T01:18:26;4.30;99.90
19242;DHT22;9755;47.790;9.620;2022-12-26T01:20:58;4.20;99.90
19242;DHT22;9755;47.790;9.620;2022-12-26T01:23:25;4.20;99.90
19242;DHT22;9755;47.790;9.620;2022-12-26T01:25:52;4.20;99.90
19242;DHT22;9755;47.790;9.620;2022-12-26T01:28:21;4.20;99.90
19242;DHT22;9755;47.790;9.620;2022-12-26T01:30:48;4.10;99.90
19242;DHT22;9755;47.790;9.620;2022-12-26T01:33:15;4.10;99.90
19242;DHT22;9755;47.790;9.620;2022-12-26T01:35:49;4.10;99.90
19242;DHT22;9755;47.790;9.620;2022-12-26T01:38:16;4.10;99.90
19242;DHT22;9755;47.790;9.620;2022-12-26T01:40:44;4.10;99.90
19242;DHT22;9755;47.790;9.620;2022-12-26T01:43:13;4.10;99.90
19242;DHT22;9755;47.790;9.620;2022-12-26T01:45:43;4.10;99.90
19242;DHT22;9755;47.790;9.620;2022-12-26T01:48:17;4.10;99.90
19242;DHT22;9755;47.790;9.620;2022-12-26T01:50:50;3.90;99.90
19242;DHT22;9755;47.790;9.620;2022-12-26T01:53:21;3.90;99.90
19242;DHT22;9755;47.790;9.620;2022-12-26T01:55:54;3.80;99.90
19242;DHT22;9755;47.790;9.620;2022-12-26T01:58:29;3.80;99.90
19242;DHT22;9755;47.790;9.620;2022-12-26T02:01:01;3.70;99.90
19242;DHT22;9755;47.790;9.620;2022-12-26T02:03:29;3.70;99.90
19242;DHT22;9755;47.790;9.620;2022-12-26T02:06:15;3.70;99.90
19242;DHT22;9755;47.790;9.620;2022-12-26T02:08:45;3.70;99.90
19242;DHT22;9755;47.790;9.620;2022-12-26T02:11:15;3.70;99.90
19242;DHT22;9755;47.790;9.620;2022-12-26T02:13:43;3.60;99.90
19242;DHT22;9755;47.790;9.620;2022-12-26T02:16:14;3.70;99.90
19242;DHT22;9755;47.790;9.620;2022-12-26T02:18:43;3.70;99.90
19242;DHT22;9755;47.790;9.620;2022-12-26T02:21:31;3.60;99.90
19242;DHT22;9755;47.790;9.620;2022-12-26T02:24:31;3.60;99.90
19242;DHT22;9755;47.790;9.620;2022-12-26T02:27:20;3.50;99.90
19242;DHT22;9755;47.790;9.620;2022-12-26T02:30:04;3.40;99.90
19242;DHT22;9755;47.790;9.620;2022-12-26T02:33:01;3.20;99.90
19242;DHT22;9755;47.790;9.620;2022-12-26T02:35:45;3.20;99.90
19242;DHT22;9755;47.790;9.620;2022-12-26T02:38:25;3.20;99.90
19242;DHT22;9755;47.790;9.620;2022-12-26T02:41:02;3.30;99.90
19242;DHT22;9755;47.790;9.620;2022-12-26T02:43:39;3.30;99.90
19242;DHT22;9755;47.790;9.620;2022-12-26T02:46:12;3.20;99.90
19242;DHT22;9755;47.790;9.620;2022-12-26T02:49:08;3.20;99.90
19242;DHT22;9755;47.790;9.620;2022-12-26T02:51:45;3.10;99.90
19242;DHT22;9755;47.790;9.620;2022-12-26T02:54:36;3.00;99.90
19242;DHT22;9755;47.790;9.620;2022-12-26T02:57:24;3.00;99.90
19242;DHT22;9755;47.790;9.620;2022-12-26T03:00:14;3.00;99.90
19242;DHT22;9755;47.790;9.620;2022-12-26T03:03:12;3.00;99.90
19242;DHT22;9755;47.790;9.620;2022-12-26T03:06:02;3.00;99.90
19242;DHT22;9755;47.790;9.620;2022-12-26T03:08:50;3.10;99.90
19242;DHT22;9755;47.790;9.620;2022-12-26T03:11:38;3.10;99.90
19242;DHT22;9755;47.790;9.620;2022-12-26T03:14:26;3.10;99.90
19242;DHT22;9755;47.790;9.620;2022-12-26T03:16:58;3.10;99.90
19242;DHT22;9755;47.790;9.620;2022-12-26T03:19:47;3.10;99.90
19242;DHT22;9755;47.790;9.620;2022-12-26T03:22:35;3.10;99.90
19242;DHT22;9755;47.790;9.620;2022-12-26T03:25:08;3.20;99.90
19242;DHT22;9755;47.790;9.620;2022-12-26T03:27:53;3.20;99.90
19242;DHT22;9755;47.790;9.620;2022-12-26T03:30:21;3.10;99.90
19242;DHT22;9755;47.790;9.620;2022-12-26T03:33:05;3.20;99.90
19242;DHT22;9755;47.790;9.620;2022-12-26T03:35:53;3.20;99.90
19242;DHT22;9755;47.790;9.620;2022-12-26T03:38:23;3.20;99.90
19242;DHT22;9755;47.790;9.620;2022-12-26T03:40:55;3.20;99.90
19242;DHT22;9755;47.790;9.620;2022-12-26T03:43:55;3.20;99.90
19242;DHT22;9755;47.790;9.620;2022-12-26T03:46:51;3.10;99.90
19242;DHT22;9755;47.790;9.620;2022-12-26T03:49:43;3.10;99.90
19242;DHT22;9755;47.790;9.620;2022-12-26T03:52:37;3.10;99.90
19242;DHT22;9755;47.790;9.620;2022-12-26T03:55:30;3.10;99.90
19242;DHT22;9755;47.790;9.620;2022-12-26T03:58:21;3.00;99.90
19242;DHT22;9755;47.790;9.620;2022-12-26T04:01:09;3.00;99.90
19242;DHT22;9755;47.790;9.620;2022-12-26T04:03:56;2.90;99.90
19242;DHT22;9755;47.790;9.620;2022-12-26T04:06:45;2.80;99.90
19242;DHT22;9755;47.790;9.620;2022-12-26T04:09:35;2.70;99.90
19242;DHT22;9755;47.790;9.620;2022-12-26T04:12:23;2.70;99.90
19242;DHT22;9755;47.790;9.620;2022-12-26T04:15:21;2.80;99.90
19242;DHT22;9755;47.790;9.620;2022-12-26T04:18:11;2.80;99.90
19242;DHT22;9755;47.790;9.620;2022-12-26T04:21:06;2.80;99.90
19242;DHT22;9755;47.790;9.620;2022-12-26T04:23:56;2.80;99.90
19242;DHT22;9755;47.790;9.620;2022-12-26T04:26:43;2.80;99.90
19242;DHT22;9755;47.790;9.620;2022-12-26T04:29:30;2.90;99.90
19242;DHT22;9755;47.790;9.620;2022-12-26T04:32:19;3.00;99.90
19242;DHT22;9755;47.790;9.620;2022-12-26T04:35:11;3.10;99.90
19242;DHT22;9755;47.790;9.620;2022-12-26T04:37:58;3.10;99.90
19242;DHT22;9755;47.790;9.620;2022-12-26T04:40:49;3.10;99.90
19242;DHT22;9755;47.790;9.620;2022-12-26T04:43:35;3.10;99.90
19242;DHT22;9755;47.790;9.620;2022-12-26T04:46:22;3.10;99.90
19242;DHT22;9755;47.790;9.620;2022-12-26T04:48:50;3.10;99.90
19242;DHT22;9755;47.790;9.620;2022-12-26T04:51:37;3.00;99.90
19242;DHT22;9755;47.790;9.620;2022-12-26T04:54:05;3.10;99.90
19242;DHT22;9755;47.790;9.620;2022-12-26T04:56:32;3.00;99.90
19242;DHT22;9755;47.790;9.620;2022-12-26T04:58:59;3.00;99.90
19242;DHT22;9755;47.790;9.620;2022-12-26T05:01:28;3.00;99.90
19242;DHT22;9755;47.790;9.620;2022-12-26T05:04:12;3.00;99.90
19242;DHT22;9755;47.790;9.620;2022-12-26T05:06:58;3.00;99.90
19242;DHT22;9755;47.790;9.620;2022-12-26T05:09:38;2.90;99.90
19242;DHT22;9755;47.790;9.620;2022-12-26T05:12:07;3.00;99.90
19242;DHT22;9755;47.790;9.620;2022-12-26T05:14:35;2.90;99.90
19242;DHT22;9755;47.790;9.620;2022-12-26T05:17:05;2.90;99.90
19242;DHT22;9755;47.790;9.620;2022-12-26T05:19:50;2.90;99.90
19242;DHT22;9755;47.790;9.620;2022-12-26T05:22:36;2.90;99.90
19242;DHT22;9755;47.790;9.620;2022-12-26T05:25:24;2.90;99.90
19242;DHT22;9755;47.790;9.620;2022-12-26T05:28:09;2.80;99.90
19242;DHT22;9755;47.790;9.620;2022-12-26T05:30:54;2.80;99.90
19242;DHT22;9755;47.790;9.620;2022-12-26T05:33:22;2.80;99.90
19242;DHT22;9755;47.790;9.620;2022-12-26T05:36:07;2.80;99.90
19242;DHT22;9755;47.790;9.620;2022-12-26T05:38:34;2.80;99.90
19242;DHT22;9755;47.790;9.620;2022-12-26T05:41:01;2.80;99.90
19242;DHT22;9755;47.790;9.620;2022-12-26T05:43:29;2.70;99.90
19242;DHT22;9755;47.790;9.620;2022-12-26T05:45:56;2.70;99.90
19242;DHT22;9755;47.790;9.620;2022-12-26T05:48:24;2.70;99.90
19242;DHT22;9755;47.790;9.620;2022-12-26T05:50:51;2.70;99.90
19242;DHT22;9755;47.790;9.620;2022-12-26T05:53:18;2.70;99.90
19242;DHT22;9755;47.790;9.620;2022-12-26T05:55:45;2.70;99.90
19242;DHT22;9755;47.790;9.620;2022-12-26T05:58:12;2.70;99.90
19242;DHT22;9755;47.790;9.620;2022-12-26T06:00:39;2.70;99.90
19242;DHT22;9755;47.790;9.620;2022-12-26T06:03:07;2.70;99.90
19242;DHT22;9755;47.790;9.620;2022-12-26T06:05:35;2.80;99.90
19242;DHT22;9755;47.790;9.620;2022-12-26T06:08:02;2.90;99.90
19242;DHT22;9755;47.790;9.620;2022-12-26T06:10:30;2.90;99.90
19242;DHT22;9755;47.790;9.620;2022-12-26T06:12:58;3.00;99.90
19242;DHT22;9755;47.790;9.620;2022-12-26T06:15:26;2.90;99.90
19242;DHT22;9755;47.790;9.620;2022-12-26T06:17:54;2.90;99.90
19242;DHT22;9755;47.790;9.620;2022-12-26T06:20:21;2.90;99.90
19242;DHT22;9755;47.790;9.620;2022-12-26T06:22:49;2.90;99.90
19242;DHT22;9755;47.790;9.620;2022-12-26T06:25:16;2.90;99.90
19242;DHT22;9755;47.790;9.620;2022-12-26T06:27:44;2.90;99.90
19242;DHT22;9755;47.790;9.620;2022-12-26T06:30:11;2.90;99.90
19242;DHT22;9755;47.790;9.620;2022-12-26T06:32:38;2.80;99.90
19242;DHT22;9755;47.790;9.620;2022-12-26T06:35:06;2.80;99.90
19242;DHT22;9755;47.790;9.620;2022-12-26T06:37:33;2.80;99.90
19242;DHT22;9755;47.790;9.620;2022-12-26T06:40:02;2.70;99.90
19242;DHT22;9755;47.790;9.620;2022-12-26T06:42:29;2.70;99.90
19242;DHT22;9755;47.790;9.620;2022-12-26T06:44:56;2.70;99.90
19242;DHT22;9755;47.790;9.620;2022-12-26T06:47:23;2.80;99.90
19242;DHT22;9755;47.790;9.620;2022-12-26T06:49:50;2.70;99.90
19242;DHT22;9755;47.790;9.620;2022-12-26T06:52:17;2.70;99.90
19242;DHT22;9755;47.790;9.620;2022-12-26T06:54:44;2.70;99.90
19242;DHT22;9755;47.790;9.620;2022-12-26T06:57:12;2.70;99.90
19242;DHT22;9755;47.790;9.620;2022-12-26T06:59:39;2.60;99.90
19242;DHT22;9755;47.790;9.620;2022-12-26T07:02:08;2.60;99.90
19242;DHT22;9755;47.790;9.620;2022-12-26T07:04:36;2.70;99.90
19242;DHT22;9755;47.790;9.620;2022-12-26T07:07:03;2.80;99.90
19242;DHT22;9755;47.790;9.620;2022-12-26T07:09:30;2.90;99.90
19242;DHT22;9755;47.790;9.620;2022-12-26T07:11:57;2.90;99.90
19242;DHT22;9755;47.790;9.620;2022-12-26T07:14:25;3.00;99.90
19242;DHT22;9755;47.790;9.620;2022-12-26T07:16:52;3.00;99.90
19242;DHT22;9755;47.790;9.620;2022-12-26T07:19:19;3.20;99.90
19242;DHT22;9755;47.790;9.620;2022-12-26T07:21:46;3.20;99.90
19242;DHT22;9755;47.790;9.620;2022-12-26T07:24:15;3.50;99.90
19242;DHT22;9755;47.790;9.620;2022-12-26T07:26:43;3.50;99.90
19242;DHT22;9755;47.790;9.620;2022-12-26T07:29:10;3.50;99.90
19242;DHT22;9755;47.790;9.620;2022-12-26T07:31:40;3.60;99.90
19242;DHT22;9755;47.790;9.620;2022-12-26T07:34:07;3.60;99.90
19242;DHT22;9755;47.790;9.620;2022-12-26T07:36:35;3.70;99.90
19242;DHT22;9755;47.790;9.620;2022-12-26T07:39:02;3.80;99.90
19242;DHT22;9755;47.790;9.620;2022-12-26T07:41:29;3.80;99.90
19242;DHT22;9755;47.790;9.620;2022-12-26T07:44:13;3.90;99.90
19242;DHT22;9755;47.790;9.620;2022-12-26T07:46:42;3.90;99.90
19242;DHT22;9755;47.790;9.620;2022-12-26T07:49:11;3.90;99.90
19242;DHT22;9755;47.790;9.620;2022-12-26T07:51:38;3.90;99.90
19242;DHT22;9755;47.790;9.620;2022-12-26T07:54:06;3.90;99.90
19242;DHT22;9755;47.790;9.620;2022-12-26T07:56:33;3.90;99.90
19242;DHT22;9755;47.790;9.620;2022-12-26T07:59:00;4.00;99.90
19242;DHT22;9755;47.790;9.620;2022-12-26T08:01:28;4.10;99.90
19242;DHT22;9755;47.790;9.620;2022-12-26T08:03:56;4.20;99.90
19242;DHT22;9755;47.790;9.620;2022-12-26T08:06:23;4.20;99.90
19242;DHT22;9755;47.790;9.620;2022-12-26T08:08:52;4.30;99.90
19242;DHT22;9755;47.790;9.620;2022-12-26T08:11:20;4.30;99.90
19242;DHT22;9755;47.790;9.620;2022-12-26T08:13:48;4.40;99.90
19242;DHT22;9755;47.790;9.620;2022-12-26T08:16:16;4.50;99.90
19242;DHT22;9755;47.790;9.620;2022-12-26T08:18:43;4.60;99.90
19242;DHT22;9755;47.790;9.620;2022-12-26T08:21:12;4.60;99.90
19242;DHT22;9755;47.790;9.620;2022-12-26T08:23:39;4.70;99.90
19242;DHT22;9755;47.790;9.620;2022-12-26T08:26:10;4.70;99.90
19242;DHT22;9755;47.790;9.620;2022-12-26T08:28:37;4.80;99.90
19242;DHT22;9755;47.790;9.620;2022-12-26T08:31:06;4.90;99.90
19242;DHT22;9755;47.790;9.620;2022-12-26T08:33:33;5.00;99.90
19242;DHT22;9755;47.790;9.620;2022-12-26T08:36:01;5.10;99.90
19242;DHT22;9755;47.790;9.620;2022-12-26T08:38:30;5.30;99.90
19242;DHT22;9755;47.790;9.620;2022-12-26T08:40:58;5.40;99.90
19242;DHT22;9755;47.790;9.620;2022-12-26T08:43:25;5.40;99.90
19242;DHT22;9755;47.790;9.620;2022-12-26T08:45:59;5.50;99.90
19242;DHT22;9755;47.790;9.620;2022-12-26T08:48:27;5.50;99.90
19242;DHT22;9755;47.790;9.620;2022-12-26T08:50:56;5.50;99.90
19242;DHT22;9755;47.790;9.620;2022-12-26T08:53:23;5.50;99.90
19242;DHT22;9755;47.790;9.620;2022-12-26T08:55:52;5.60;99.90
19242;DHT22;9755;47.790;9.620;2022-12-26T08:58:19;5.60;99.90
19242;DHT22;9755;47.790;9.620;2022-12-26T09:00:46;5.70;99.90
19242;DHT22;9755;47.790;9.620;2022-12-26T09:03:14;5.90;99.90
19242;DHT22;9755;47.790;9.620;2022-12-26T09:05:41;6.00;99.90
19242;DHT22;9755;47.790;9.620;2022-12-26T09:08:08;6.40;99.90
19242;DHT22;9755;47.790;9.620;2022-12-26T09:10:35;6.70;99.90
19242;DHT22;9755;47.790;9.620;2022-12-26T09:13:04;7.00;99.90
19242;DHT22;9755;47.790;9.620;2022-12-26T09:15:31;7.20;99.90
19242;DHT22;9755;47.790;9.620;2022-12-26T09:17:58;7.50;99.90
19242;DHT22;9755;47.790;9.620;2022-12-26T09:20:25;7.40;99.90
19242;DHT22;9755;47.790;9.620;2022-12-26T09:22:52;7.50;99.90
19242;DHT22;9755;47.790;9.620;2022-12-26T09:25:22;7.40;99.90
19242;DHT22;9755;47.790;9.620;2022-12-26T09:27:50;7.10;99.90
19242;DHT22;9755;47.790;9.620;2022-12-26T09:30:20;6.90;99.90
19242;DHT22;9755;47.790;9.620;2022-12-26T09:32:47;7.40;99.90
19242;DHT22;9755;47.790;9.620;2022-12-26T09:35:15;7.80;99.90
19242;DHT22;9755;47.790;9.620;2022-12-26T09:37:42;8.20;99.90
19242;DHT22;9755;47.790;9.620;2022-12-26T09:40:19;8.80;99.90
19242;DHT22;9755;47.790;9.620;2022-12-26T09:42:57;9.30;99.90
19242;DHT22;9755;47.790;9.620;2022-12-26T09:45:41;9.30;99.90
19242;DHT22;9755;47.790;9.620;2022-12-26T09:48:14;9.40;99.90
19242;DHT22;9755;47.790;9.620;2022-12-26T09:50:48;9.40;99.90
19242;DHT22;9755;47.790;9.620;2022-12-26T09:53:21;9.30;99.90
19242;DHT22;9755;47.790;9.620;2022-12-26T09:55:53;9.30;99.90
19242;DHT22;9755;47.790;9.620;2022-12-26T09:58:25;9.30;99.90
19242;DHT22;9755;47.790;9.620;2022-12-26T10:00:58;9.30;99.90
19242;DHT22;9755;47.790;9.620;2022-12-26T10:03:26;9.20;99.90
19242;DHT22;9755;47.790;9.620;2022-12-26T10:06:08;9.10;99.90
19242;DHT22;9755;47.790;9.620;2022-12-26T10:09:02;9.20;99.90
19242;DHT22;9755;47.790;9.620;2022-12-26T10:14:26;9.30;99.90
19242;DHT22;9755;47.790;9.620;2022-12-26T10:16:59;9.30;99.90
19242;DHT22;9755;47.790;9.620;2022-12-26T10:22:29;9.10;99.90
19242;DHT22;9755;47.790;9.620;2022-12-26T10:25:00;9.20;99.90
19242;DHT22;9755;47.790;9.620;2022-12-26T10:27:33;9.20;99.90
19242;DHT22;9755;47.790;9.620;2022-12-26T10:30:05;9.30;19.10
19242;DHT22;9755;47.790;9.620;2022-12-26T10:32:38;9.30;1.00
19242;DHT22;9755;47.790;9.620;2022-12-26T10:35:17;9.40;99.90
19242;DHT22;9755;47.790;9.620;2022-12-26T10:37:46;9.30;99.90
19242;DHT22;9755;47.790;9.620;2022-12-26T10:40:20;9.40;4.40
19242;DHT22;9755;47.790;9.620;2022-12-26T10:42:52;9.40;1.00
19242;DHT22;9755;47.790;9.620;2022-12-26T10:45:24;9.40;1.00
19242;DHT22;9755;47.790;9.620;2022-12-26T10:47:56;9.30;99.90
19242;DHT22;9755;47.790;9.620;2022-12-26T10:50:28;9.30;99.90
19242;DHT22;9755;47.790;9.620;2022-12-26T10:52:56;9.20;99.90
19242;DHT22;9755;47.790;9.620;2022-12-26T10:55:27;9.20;1.00
19242;DHT22;9755;47.790;9.620;2022-12-26T10:57:54;9.20;1.00
19242;DHT22;9755;47.790;9.620;2022-12-26T11:00:25;9.30;1.00
19242;DHT22;9755;47.790;9.620;2022-12-26T11:03:04;9.20;99.90
19242;DHT22;9755;47.790;9.620;2022-12-26T11:05:33;9.30;99.90
19242;DHT22;9755;47.790;9.620;2022-12-26T11:08:08;9.30;99.90
19242;DHT22;9755;47.790;9.620;2022-12-26T11:10:42;9.30;99.90
19242;DHT22;9755;47.790;9.620;2022-12-26T11:13:19;9.30;99.90
19242;DHT22;9755;47.790;9.620;2022-12-26T11:15:50;9.40;99.90
19242;DHT22;9755;47.790;9.620;2022-12-26T11:18:21;9.40;99.90
19242;DHT22;9755;47.790;9.620;2022-12-26T11:20:49;9.50;99.90
19242;DHT22;9755;47.790;9.620;2022-12-26T11:23:25;9.60;1.00
19242;DHT22;9755;47.790;9.620;2022-12-26T11:25:54;9.60;1.00
19242;DHT22;9755;47.790;9.620;2022-12-26T11:28:28;9.70;1.00
19242;DHT22;9755;47.790;9.620;2022-12-26T11:30:56;9.80;1.00
19242;DHT22;9755;47.790;9.620;2022-12-26T11:33:28;9.80;99.90
19242;DHT22;9755;47.790;9.620;2022-12-26T11:36:06;9.70;1.00
19242;DHT22;9755;47.790;9.620;2022-12-26T11:38:46;9.60;1.00
19242;DHT22;9755;47.790;9.620;2022-12-26T11:41:15;9.40;1.00
19242;DHT22;9755;47.790;9.620;2022-12-26T11:44:01;9.40;1.00
19242;DHT22;9755;47.790;9.620;2022-12-26T11:46:34;9.30;1.00
19242;DHT22;9755;47.790;9.620;2022-12-26T11:49:03;9.30;1.00
19242;DHT22;9755;47.790;9.620;2022-12-26T11:51:38;9.30;1.00
19242;DHT22;9755;47.790;9.620;2022-12-26T11:54:31;9.30;1.00
19242;DHT22;9755;47.790;9.620;2022-12-26T11:57:11;9.30;53.20
19242;DHT22;9755;47.790;9.620;2022-12-26T11:59:38;9.30;99.90
19242;DHT22;9755;47.790;9.620;2022-12-26T12:02:23;9.30;99.90
19242;DHT22;9755;47.790;9.620;2022-12-26T12:04:54;9.20;99.90
19242;DHT22;9755;47.790;9.620;2022-12-26T12:10:41;9.20;99.90
19242;DHT22;9755;47.790;9.620;2022-12-26T12:13:20;9.20;99.90
19242;DHT22;9755;47.790;9.620;2022-12-26T12:15:55;9.10;99.90
19242;DHT22;9755;47.790;9.620;2022-12-26T12:18:34;9.10;99.90
19242;DHT22;9755;47.790;9.620;2022-12-26T12:21:11;9.10;99.90
19242;DHT22;9755;47.790;9.620;2022-12-26T12:23:51;9.10;99.90
19242;DHT22;9755;47.790;9.620;2022-12-26T12:26:25;9.00;99.90
19242;DHT22;9755;47.790;9.620;2022-12-26T12:29:15;9.00;99.90
19242;DHT22;9755;47.790;9.620;2022-12-26T12:31:59;9.00;99.90
19242;DHT22;9755;47.790;9.620;2022-12-26T12:34:34;9.00;99.90
19242;DHT22;9755;47.790;9.620;2022-12-26T12:37:15;9.00;99.90
19242;DHT22;9755;47.790;9.620;2022-12-26T12:39:53;9.00;99.90
19242;DHT22;9755;47.790;9.620;2022-12-26T12:42:38;9.00;99.90
19242;DHT22;9755;47.790;9.620;2022-12-26T12:45:37;9.00;99.90
19242;DHT22;9755;47.790;9.620;2022-12-26T12:48:37;9.10;99.90
19242;DHT22;9755;47.790;9.620;2022-12-26T12:51:16;9.10;99.90
19242;DHT22;9755;47.790;9.620;2022-12-26T12:54:21;9.10;99.90
19242;DHT22;9755;47.790;9.620;2022-12-26T12:56:55;9.00;99.90
19242;DHT22;9755;47.790;9.620;2022-12-26T12:59:34;9.00;99.90
19242;DHT22;9755;47.790;9.620;2022-12-26T13:02:12;9.00;99.90
19242;DHT22;9755;47.790;9.620;2022-12-26T13:04:46;9.00;99.90
19242;DHT22;9755;47.790;9.620;2022-12-26T13:07:19;9.00;99.90
19242;DHT22;9755;47.790;9.620;2022-12-26T13:09:51;8.90;99.90
19242;DHT22;9755;47.790;9.620;2022-12-26T13:12:23;8.80;99.90
19242;DHT22;9755;47.790;9.620;2022-12-26T13:14:54;8.70;99.90
19242;DHT22;9755;47.790;9.620;2022-12-26T13:17:25;8.70;99.90
19242;DHT22;9755;47.790;9.620;2022-12-26T13:19:58;8.60;99.90
19242;DHT22;9755;47.790;9.620;2022-12-26T13:22:29;8.60;99.90
19242;DHT22;9755;47.790;9.620;2022-12-26T13:25:20;8.60;99.90
19242;DHT22;9755;47.790;9.620;2022-12-26T13:27:47;8.60;99.90
19242;DHT22;9755;47.790;9.620;2022-12-26T13:30:16;8.70;99.90
19242;DHT22;9755;47.790;9.620;2022-12-26T13:32:44;8.70;99.90
19242;DHT22;9755;47.790;9.620;2022-12-26T13:41:35;8.70;99.90
19242;DHT22;9755;47.790;9.620;2022-12-26T13:44:25;8.70;99.90
19242;DHT22;9755;47.790;9.620;2022-12-26T13:46:56;8.70;99.90
19242;DHT22;9755;47.790;9.620;2022-12-26T13:49:29;8.70;99.90
19242;DHT22;9755;47.790;9.620;2022-12-26T13:52:34;8.70;99.90
19242;DHT22;9755;47.790;9.620;2022-12-26T13:55:30;8.80;99.90
19242;DHT22;9755;47.790;9.620;2022-12-26T13:58:36;8.80;99.90
19242;DHT22;9755;47.790;9.620;2022-12-26T14:01:18;8.90;99.90
19242;DHT22;9755;47.790;9.620;2022-12-26T14:04:02;9.00;99.90
19242;DHT22;9755;47.790;9.620;2022-12-26T14:06:55;8.90;99.90
19242;DHT22;9755;47.790;9.620;2022-12-26T14:09:40;8.90;99.90
19242;DHT22;9755;47.790;9.620;2022-12-26T14:12:31;9.00;99.90
19242;DHT22;9755;47.790;9.620;2022-12-26T14:15:13;9.00;99.90
19242;DHT22;9755;47.790;9.620;2022-12-26T14:17:47;8.90;99.90
19242;DHT22;9755;47.790;9.620;2022-12-26T14:20:27;9.00;99.90
19242;DHT22;9755;47.790;9.620;2022-12-26T14:23:03;9.00;99.90
19242;DHT22;9755;47.790;9.620;2022-12-26T14:25:47;9.00;99.90
19242;DHT22;9755;47.790;9.620;2022-12-26T14:28:22;9.00;99.90
19242;DHT22;9755;47.790;9.620;2022-12-26T14:31:10;9.00;99.90
19242;DHT22;9755;47.790;9.620;2022-12-26T14:33:53;9.00;99.90
19242;DHT22;9755;47.790;9.620;2022-12-26T14:36:32;8.90;99.90
19242;DHT22;9755;47.790;9.620;2022-12-26T14:39:11;8.90;99.90
19242;DHT22;9755;47.790;9.620;2022-12-26T14:42:15;8.90;99.90
19242;DHT22;9755;47.790;9.620;2022-12-26T14:45:03;8.90;99.90
19242;DHT22;9755;47.790;9.620;2022-12-26T14:47:39;8.80;99.90
19242;DHT22;9755;47.790;9.620;2022-12-26T14:50:33;8.80;99.90
19242;DHT22;9755;47.790;9.620;2022-12-26T14:53:29;8.80;99.90
19242;DHT22;9755;47.790;9.620;2022-12-26T14:55:58;8.80;99.90
19242;DHT22;9755;47.790;9.620;2022-12-26T14:58:36;8.70;99.90
19242;DHT22;9755;47.790;9.620;2022-12-26T15:04:48;8.70;99.90
19242;DHT22;9755;47.790;9.620;2022-12-26T15:07:44;8.70;99.90
19242;DHT22;9755;47.790;9.620;2022-12-26T15:10:44;8.70;99.90
19242;DHT22;9755;47.790;9.620;2022-12-26T15:13:32;8.60;99.90
19242;DHT22;9755;47.790;9.620;2022-12-26T15:16:27;8.60;99.90
19242;DHT22;9755;47.790;9.620;2022-12-26T15:19:26;8.60;99.90
19242;DHT22;9755;47.790;9.620;2022-12-26T15:22:26;8.50;99.90
19242;DHT22;9755;47.790;9.620;2022-12-26T15:25:21;8.50;99.90
19242;DHT22;9755;47.790;9.620;2022-12-26T15:28:24;8.40;99.90
19242;DHT22;9755;47.790;9.620;2022-12-26T15:31:31;8.40;99.90
19242;DHT22;9755;47.790;9.620;2022-12-26T15:34:11;8.40;99.90
19242;DHT22;9755;47.790;9.620;2022-12-26T15:36:51;8.40;99.90
19242;DHT22;9755;47.790;9.620;2022-12-26T15:39:25;8.40;99.90
19242;DHT22;9755;47.790;9.620;2022-12-26T15:42:01;8.40;99.90
19242;DHT22;9755;47.790;9.620;2022-12-26T15:44:37;8.30;99.90
19242;DHT22;9755;47.790;9.620;2022-12-26T15:47:15;8.30;99.90
19242;DHT22;9755;47.790;9.620;2022-12-26T15:50:01;8.40;99.90
19242;DHT22;9755;47.790;9.620;2022-12-26T15:52:41;8.40;99.90
19242;DHT22;9755;47.790;9.620;2022-12-26T15:58:23;8.30;99.90
19242;DHT22;9755;47.790;9.620;2022-12-26T16:00:57;8.40;99.90
19242;DHT22;9755;47.790;9.620;2022-12-26T16:03:33;8.40;99.90
19242;DHT22;9755;47.790;9.620;2022-12-26T16:06:25;8.40;99.90
19242;DHT22;9755;47.790;9.620;2022-12-26T16:09:29;8.50;99.90
19242;DHT22;9755;47.790;9.620;2022-12-26T16:12:01;8.50;99.90
19242;DHT22;9755;47.790;9.620;2022-12-26T16:14:30;8.50;99.90
19242;DHT22;9755;47.790;9.620;2022-12-26T16:17:18;8.60;99.90
19242;DHT22;9755;47.790;9.620;2022-12-26T16:19:46;8.60;99.90
19242;DHT22;9755;47.790;9.620;2022-12-26T16:22:16;8.50;99.90
19242;DHT22;9755;47.790;9.620;2022-12-26T16:25:02;8.50;99.90
19242;DHT22;9755;47.790;9.620;2022-12-26T16:27:30;8.50;99.90
19242;DHT22;9755;47.790;9.620;2022-12-26T16:30:00;8.60;99.90
19242;DHT22;9755;47.790;9.620;2022-12-26T16:32:33;8.50;99.90
19242;DHT22;9755;47.790;9.620;2022-12-26T16:35:01;8.50;99.90
19242;DHT22;9755;47.790;9.620;2022-12-26T16:37:28;8.50;99.90
19242;DHT22;9755;47.790;9.620;2022-12-26T16:40:23;8.40;99.90
19242;DHT22;9755;47.790;9.620;2022-12-26T16:43:00;8.50;99.90
19242;DHT22;9755;47.790;9.620;2022-12-26T16:45:30;8.50;99.90
19242;DHT22;9755;47.790;9.620;2022-12-26T16:47:58;8.40;99.90
19242;DHT22;9755;47.790;9.620;2022-12-26T16:50:27;8.50;99.90
19242;DHT22;9755;47.790;9.620;2022-12-26T16:53:11;8.60;99.90
19242;DHT22;9755;47.790;9.620;2022-12-26T16:55:42;8.70;99.90
19242;DHT22;9755;47.790;9.620;2022-12-26T16:58:21;8.70;99.90
19242;DHT22;9755;47.790;9.620;2022-12-26T17:01:06;8.60;99.90
19242;DHT22;9755;47.790;9.620;2022-12-26T17:03:38;8.60;99.90
19242;DHT22;9755;47.790;9.620;2022-12-26T17:06:10;8.60;99.90
19242;DHT22;9755;47.790;9.620;2022-12-26T17:08:42;8.50;99.90
19242;DHT22;9755;47.790;9.620;2022-12-26T17:11:12;8.50;99.90
19242;DHT22;9755;47.790;9.620;2022-12-26T17:13:40;8.50;99.90
19242;DHT22;9755;47.790;9.620;2022-12-26T17:16:12;8.50;99.90
19242;DHT22;9755;47.790;9.620;2022-12-26T17:18:45;8.60;99.90